Aviation Digital Data Service (ADDS)

Output produced by METARs form (2133 UTC 20 August 2019)
found at http://www.aviationweather.gov/metar/data/
 
METAR text: RJCM 201100Z 16009KT 9999 -SHRA FEW005 SCT040 BKN090 16/14 Q1011
Conditions at: RJCM (MEMAMBETSU AIRPO, JP) observed 1100 UTC 20 August 2019
Temperature: 16.0°C (61°F)
Dewpoint: 14.0°C (57°F) [RH = 88%]
Pressure (altimeter): 29.85 inches Hg (1011.0 mb)
Winds: from the SSE (160 degrees) at 10 MPH (9 knots; 4.6 m/s)
Visibility: 6 or more miles (10+ km)
Ceiling: 9000 feet AGL
Clouds: few clouds at 500 feet AGL
scattered clouds at 4000 feet AGL
broken clouds at 9000 feet AGL
Weather: -SHRA  (light rain showers)

METAR text: RJCM 201044Z 17010KT 6000 -SHRA FEW005 SCT035 BKN040 16/15 Q1012 RMK 1ST005 3CU035 5CU040 A2989
Conditions at: RJCM (MEMAMBETSU AIRPO, JP) observed 1044 UTC 20 August 2019
Temperature: 16.0°C (61°F)
Dewpoint: 15.0°C (59°F) [RH = 94%]
Pressure (altimeter): 29.88 inches Hg (1012.0 mb)
Winds: from the S (170 degrees) at 12 MPH (10 knots; 5.1 m/s)
Visibility: 4 miles ( 6 km)
Ceiling: 4000 feet AGL
Clouds: few clouds at 500 feet AGL
scattered clouds at 3500 feet AGL
broken clouds at 4000 feet AGL
Weather: -SHRA  (light rain showers)

METAR text: RJCM 201026Z 18010KT 4900 SHRA BR FEW005 SCT020 BKN035 16/15 Q1012 RMK 1ST005 3CU020 5CU035 A2990
Conditions at: RJCM (MEMAMBETSU AIRPO, JP) observed 1026 UTC 20 August 2019
Temperature: 16.0°C (61°F)
Dewpoint: 15.0°C (59°F) [RH = 94%]
Pressure (altimeter): 29.88 inches Hg (1012.0 mb)
Winds: from the S (180 degrees) at 12 MPH (10 knots; 5.1 m/s)
Visibility: 3 miles ( 5 km)
Ceiling: 3500 feet AGL
Clouds: few clouds at 500 feet AGL
scattered clouds at 2000 feet AGL
broken clouds at 3500 feet AGL
Weather: SHRA BR  (rain showers, mist)

METAR text: RJCM 201015Z 17010KT 5000 +SHRA BR FEW005 SCT015 BKN040 16/15 Q1012 RMK 1ST005 3ST015 5CU040 A2991
Conditions at: RJCM (MEMAMBETSU AIRPO, JP) observed 1015 UTC 20 August 2019
Temperature: 16.0°C (61°F)
Dewpoint: 15.0°C (59°F) [RH = 94%]
Pressure (altimeter): 29.88 inches Hg (1012.0 mb)
Winds: from the S (170 degrees) at 12 MPH (10 knots; 5.1 m/s)
Visibility: 3 miles ( 5 km)
Ceiling: 4000 feet AGL
Clouds: few clouds at 500 feet AGL
scattered clouds at 1500 feet AGL
broken clouds at 4000 feet AGL
Weather: +SHRA BR  (heavy rain showers, mist)

METAR text: RJCM 201000Z 16006KT 5000 SHRA BR FEW005 SCT040 BKN050 16/15 Q1012
Conditions at: RJCM (MEMAMBETSU AIRPO, JP) observed 1000 UTC 20 August 2019
Temperature: 16.0°C (61°F)
Dewpoint: 15.0°C (59°F) [RH = 94%]
Pressure (altimeter): 29.88 inches Hg (1012.0 mb)
Winds: from the SSE (160 degrees) at 7 MPH (6 knots; 3.1 m/s)
Visibility: 3 miles ( 5 km)
Ceiling: 5000 feet AGL
Clouds: few clouds at 500 feet AGL
scattered clouds at 4000 feet AGL
broken clouds at 5000 feet AGL
Weather: SHRA BR  (rain showers, mist)

METAR text: RJCM 200923Z 17007KT 6000 SHRA FEW005 BKN050 BKN060 16/15 Q1013 RMK 1ST005 5CU050 6CU060 A2991
Conditions at: RJCM (MEMAMBETSU AIRPO, JP) observed 0923 UTC 20 August 2019
Temperature: 16.0°C (61°F)
Dewpoint: 15.0°C (59°F) [RH = 94%]
Pressure (altimeter): 29.91 inches Hg (1013.0 mb)
Winds: from the S (170 degrees) at 8 MPH (7 knots; 3.6 m/s)
Visibility: 4 miles ( 6 km)
Ceiling: 5000 feet AGL
Clouds: few clouds at 500 feet AGL
broken clouds at 5000 feet AGL
broken clouds at 6000 feet AGL
Weather: SHRA  (rain showers)

METAR text: RJCM 200900Z 18008KT 8000 -SHRA FEW005 SCT050 BKN060 16/15 Q1012
Conditions at: RJCM (MEMAMBETSU AIRPO, JP) observed 0900 UTC 20 August 2019
Temperature: 16.0°C (61°F)
Dewpoint: 15.0°C (59°F) [RH = 94%]
Pressure (altimeter): 29.88 inches Hg (1012.0 mb)
Winds: from the S (180 degrees) at 9 MPH (8 knots; 4.1 m/s)
Visibility: 5 miles ( 8 km)
Ceiling: 6000 feet AGL
Clouds: few clouds at 500 feet AGL
scattered clouds at 5000 feet AGL
broken clouds at 6000 feet AGL
Weather: -SHRA  (light rain showers)

METAR text: RJCM 200800Z 18010KT 9999 -SHRA FEW005 SCT060 BKN100 17/15 Q1012
Conditions at: RJCM (MEMAMBETSU AIRPO, JP) observed 0800 UTC 20 August 2019
Temperature: 17.0°C (63°F)
Dewpoint: 15.0°C (59°F) [RH = 88%]
Pressure (altimeter): 29.88 inches Hg (1012.0 mb)
Winds: from the S (180 degrees) at 12 MPH (10 knots; 5.1 m/s)
Visibility: 6 or more miles (10+ km)
Ceiling: 10000 feet AGL
Clouds: few clouds at 500 feet AGL
scattered clouds at 6000 feet AGL
broken clouds at 10000 feet AGL
Weather: -SHRA  (light rain showers)

METAR text: RJCM 200700Z 18010KT 9999 -SHRA FEW005 SCT030 BKN040 17/15 Q1012
Conditions at: RJCM (MEMAMBETSU AIRPO, JP) observed 0700 UTC 20 August 2019
Temperature: 17.0°C (63°F)
Dewpoint: 15.0°C (59°F) [RH = 88%]
Pressure (altimeter): 29.88 inches Hg (1012.0 mb)
Winds: from the S (180 degrees) at 12 MPH (10 knots; 5.1 m/s)
Visibility: 6 or more miles (10+ km)
Ceiling: 4000 feet AGL
Clouds: few clouds at 500 feet AGL
scattered clouds at 3000 feet AGL
broken clouds at 4000 feet AGL
Weather: -SHRA  (light rain showers)

METAR text: RJCM 200600Z 17009KT 9999 -SHRA FEW005 SCT030 BKN040 17/15 Q1012
Conditions at: RJCM (MEMAMBETSU AIRPO, JP) observed 0600 UTC 20 August 2019
Temperature: 17.0°C (63°F)
Dewpoint: 15.0°C (59°F) [RH = 88%]
Pressure (altimeter): 29.88 inches Hg (1012.0 mb)
Winds: from the S (170 degrees) at 10 MPH (9 knots; 4.6 m/s)
Visibility: 6 or more miles (10+ km)
Ceiling: 4000 feet AGL
Clouds: few clouds at 500 feet AGL
scattered clouds at 3000 feet AGL
broken clouds at 4000 feet AGL
Weather: -SHRA  (light rain showers)

METAR text: RJCM 200500Z 18011KT 9999 -SHRA FEW008 SCT015 BKN040 18/15 Q1013
Conditions at: RJCM (MEMAMBETSU AIRPO, JP) observed 0500 UTC 20 August 2019
Temperature: 18.0°C (64°F)
Dewpoint: 15.0°C (59°F) [RH = 83%]
Pressure (altimeter): 29.91 inches Hg (1013.0 mb)
Winds: from the S (180 degrees) at 13 MPH (11 knots; 5.7 m/s)
Visibility: 6 or more miles (10+ km)
Ceiling: 4000 feet AGL
Clouds: few clouds at 800 feet AGL
scattered clouds at 1500 feet AGL
broken clouds at 4000 feet AGL
Weather: -SHRA  (light rain showers)

METAR text: RJCM 200400Z 17011KT 9999 -SHRA FEW010 SCT020 BKN100 18/15 Q1013
Conditions at: RJCM (MEMAMBETSU AIRPO, JP) observed 0400 UTC 20 August 2019
Temperature: 18.0°C (64°F)
Dewpoint: 15.0°C (59°F) [RH = 83%]
Pressure (altimeter): 29.91 inches Hg (1013.0 mb)
Winds: from the S (170 degrees) at 13 MPH (11 knots; 5.7 m/s)
Visibility: 6 or more miles (10+ km)
Ceiling: 10000 feet AGL
Clouds: few clouds at 1000 feet AGL
scattered clouds at 2000 feet AGL
broken clouds at 10000 feet AGL
Weather: -SHRA  (light rain showers)

METAR text: RJCM 200300Z 18016KT 9999 -SHRA FEW010 SCT020 BKN110 19/14 Q1013
Conditions at: RJCM (MEMAMBETSU AIRPO, JP) observed 0300 UTC 20 August 2019
Temperature: 19.0°C (66°F)
Dewpoint: 14.0°C (57°F) [RH = 73%]
Pressure (altimeter): 29.91 inches Hg (1013.0 mb)
Winds: from the S (180 degrees) at 18 MPH (16 knots; 8.2 m/s)
Visibility: 6 or more miles (10+ km)
Ceiling: 11000 feet AGL
Clouds: few clouds at 1000 feet AGL
scattered clouds at 2000 feet AGL
broken clouds at 11000 feet AGL
Weather: -SHRA  (light rain showers)

METAR text: RJCM 200200Z 18016KT 9999 FEW010 SCT130 BKN/// 19/14 Q1013
Conditions at: RJCM (MEMAMBETSU AIRPO, JP) observed 0200 UTC 20 August 2019
Temperature: 19.0°C (66°F)
Dewpoint: 14.0°C (57°F) [RH = 73%]
Pressure (altimeter): 29.91 inches Hg (1013.0 mb)
Winds: from the S (180 degrees) at 18 MPH (16 knots; 8.2 m/s)
Visibility: 6 or more miles (10+ km)
Ceiling: at least 12,000 feet AGL
Clouds: few clouds at 1000 feet AGL
scattered clouds at 13000 feet AGL
Weather: no significant weather observed at this time

METAR text: RJCM 200100Z 17015KT 9999 FEW010 SCT030 BKN/// 18/14 Q1013
Conditions at: RJCM (MEMAMBETSU AIRPO, JP) observed 0100 UTC 20 August 2019
Temperature: 18.0°C (64°F)
Dewpoint: 14.0°C (57°F) [RH = 77%]
Pressure (altimeter): 29.91 inches Hg (1013.0 mb)
Winds: from the S (170 degrees) at 17 MPH (15 knots; 7.7 m/s)
Visibility: 6 or more miles (10+ km)
Ceiling: at least 12,000 feet AGL
Clouds: few clouds at 1000 feet AGL
scattered clouds at 3000 feet AGL
Weather: no significant weather observed at this time

METAR text: RJCM 200000Z 18013KT 9999 -SHRA FEW010 SCT015 BKN/// 17/14 Q1014
Conditions at: RJCM (MEMAMBETSU AIRPO, JP) observed 0000 UTC 20 August 2019
Temperature: 17.0°C (63°F)
Dewpoint: 14.0°C (57°F) [RH = 82%]
Pressure (altimeter): 29.94 inches Hg (1014.0 mb)
Winds: from the S (180 degrees) at 15 MPH (13 knots; 6.7 m/s)
Visibility: 6 or more miles (10+ km)
Ceiling: at least 12,000 feet AGL
Clouds: few clouds at 1000 feet AGL
scattered clouds at 1500 feet AGL
Weather: -SHRA  (light rain showers)

METAR text: RJCM 192300Z 18013KT 9999 -SHRA FEW010 BKN080 BKN/// 17/13 Q1014
Conditions at: RJCM (MEMAMBETSU AIRPO, JP) observed 2300 UTC 19 August 2019
Temperature: 17.0°C (63°F)
Dewpoint: 13.0°C (55°F) [RH = 77%]
Pressure (altimeter): 29.94 inches Hg (1014.0 mb)
Winds: from the S (180 degrees) at 15 MPH (13 knots; 6.7 m/s)
Visibility: 6 or more miles (10+ km)
Ceiling: 8000 feet AGL
Clouds: few clouds at 1000 feet AGL
broken clouds at 8000 feet AGL
Weather: -SHRA  (light rain showers)

METAR text: RJCM 192245Z 17012KT 9999 -SHRA FEW010 BKN080 17/13 Q1014 RMK 1ST010 6AC080 A2996
Conditions at: RJCM (MEMAMBETSU AIRPO, JP) observed 2245 UTC 19 August 2019
Temperature: 17.0°C (63°F)
Dewpoint: 13.0°C (55°F) [RH = 77%]
Pressure (altimeter): 29.94 inches Hg (1014.0 mb)
Winds: from the S (170 degrees) at 14 MPH (12 knots; 6.2 m/s)
Visibility: 6 or more miles (10+ km)
Ceiling: 8000 feet AGL
Clouds: few clouds at 1000 feet AGL
broken clouds at 8000 feet AGL
Weather: -SHRA  (light rain showers)

METAR text: RJCM 191100Z 17012KT 9999 FEW010 BKN/// 16/13 Q1016
Conditions at: RJCM (MEMAMBETSU AIRPO, JP) observed 1100 UTC 19 August 2019
Temperature: 16.0°C (61°F)
Dewpoint: 13.0°C (55°F) [RH = 82%]
Pressure (altimeter): 30.00 inches Hg (1016.0 mb)
Winds: from the S (170 degrees) at 14 MPH (12 knots; 6.2 m/s)
Visibility: 6 or more miles (10+ km)
Ceiling: at least 12,000 feet AGL
Clouds: few clouds at 1000 feet AGL
Weather: no significant weather observed at this time

METAR text: RJCM 191000Z 17012KT 9999 FEW010 BKN/// 17/14 Q1015
Conditions at: RJCM (MEMAMBETSU AIRPO, JP) observed 1000 UTC 19 August 2019
Temperature: 17.0°C (63°F)
Dewpoint: 14.0°C (57°F) [RH = 82%]
Pressure (altimeter): 29.97 inches Hg (1015.0 mb)
Winds: from the S (170 degrees) at 14 MPH (12 knots; 6.2 m/s)
Visibility: 6 or more miles (10+ km)
Ceiling: at least 12,000 feet AGL
Clouds: few clouds at 1000 feet AGL
Weather: no significant weather observed at this time

Forecast for: RJCM (MEMAMBETSU AIRPO, JP)
Text: TAF RJCM 201714Z 2018/2200 20006KT 9999 FEW008 BKN015
Forecast period: 1800 UTC 20 August 2019 to 0000 UTC 22 August 2019
Forecast type: FROM: standard forecast or significant change
Winds: from the SSW (200 degrees) at 7 MPH (6 knots; 3.1 m/s)
Visibility: 6 or more miles 10+ km)
Ceiling: 1500 feet AGL
Clouds: few clouds at 800 feet AGL
broken clouds at 1500 feet AGL
Weather: no significant weather forecast for this period
Text: TEMPO 2018/2022 4000 -SHRA BR FEW005 BKN008
Forecast period: 1800 to 2200 UTC 20 August 2019
Forecast type: TEMPORARY: The following changes expected for less than half the time period
Visibility: 2.49 miles (4.01 km)
Ceiling: 800 feet AGL
Clouds: few clouds at 500 feet AGL
broken clouds at 800 feet AGL
Weather: -SHRA BR  (light rain showers, mist)